Time;durP1;ratioP1;P1;durP2;ratioP2;P2;SDS_P1;SDS_P2;PMS_P1;PMS_P2;Temp;Humidity;BMP_temperature;BMP_pressure;BME280_temperature;BME280_humidity;BME280_pressure;Samples;Min_cycle;Max_cycle;Signal;HPM_P1;HPM_P2
2023/08/07 00:00:26;;;;;;;5.40;2.30;;;;;;;26.27;44.57;97850.97;4975683;28;20036;-85
2023/08/07 00:02:52;;;;;;;3.28;2.33;;;;;;;26.19;44.82;97859.38;4976194;28;20037;-84
2023/08/07 00:05:19;;;;;;;3.60;2.20;;;;;;;26.09;44.75;97854.66;4975759;28;20038;-84
2023/08/07 00:07:44;;;;;;;4.28;2.30;;;;;;;26.11;44.80;97863.25;4959627;28;20500;-84
2023/08/07 00:10:10;;;;;;;3.33;2.17;;;;;;;26.11;45.28;97857.88;4975877;28;20030;-84
2023/08/07 00:12:35;;;;;;;3.10;2.22;;;;;;;26.16;44.91;97854.50;4959885;28;20036;-84
2023/08/07 00:15:02;;;;;;;5.00;2.30;;;;;;;26.15;45.18;97856.34;4976168;28;20038;-84
2023/08/07 00:17:28;;;;;;;4.00;2.35;;;;;;;26.18;45.07;97868.44;4976001;28;20034;-84
2023/08/07 00:19:53;;;;;;;5.38;2.30;;;;;;;26.21;45.08;97877.84;4991984;28;20495;-84
2023/08/07 00:22:19;;;;;;;5.63;2.45;;;;;;;26.14;44.78;97875.31;4991546;28;20544;-84
2023/08/07 00:24:45;;;;;;;5.55;2.63;;;;;;;26.14;45.25;97865.44;5007640;28;20113;-84
2023/08/07 00:27:11;;;;;;;3.10;2.20;;;;;;;26.16;45.16;97878.56;4975837;28;20037;-84
2023/08/07 00:29:37;;;;;;;3.25;2.05;;;;;;;26.14;45.00;97869.94;4991996;28;20092;-84
2023/08/07 00:32:03;;;;;;;2.70;2.22;;;;;;;26.21;45.14;97877.84;4977146;28;20113;-84
2023/08/07 00:34:29;;;;;;;5.75;2.22;;;;;;;26.25;44.78;97889.69;4995203;28;20061;-84
2023/08/07 00:36:54;;;;;;;3.55;2.20;;;;;;;26.26;45.32;97894.00;4995706;28;20106;-84
2023/08/07 00:39:21;;;;;;;3.85;2.25;;;;;;;26.28;44.90;97897.22;4979237;28;20038;-83
2023/08/07 00:41:46;;;;;;;2.90;2.10;;;;;;;26.28;44.43;97889.22;4995807;28;20466;-85
2023/08/07 00:44:12;;;;;;;3.10;2.35;;;;;;;26.28;44.21;97906.09;4979187;28;20030;-86
2023/08/07 00:46:39;;;;;;;2.70;2.30;;;;;;;26.26;44.00;97889.44;4979138;28;20465;-69
2023/08/07 00:49:05;;;;;;;5.05;2.20;;;;;;;26.31;44.11;97891.41;4995349;28;20038;-69
2023/08/07 00:51:30;;;;;;;4.88;2.47;;;;;;;26.30;43.87;97882.56;4962904;28;20037;-69
2023/08/07 00:53:56;;;;;;;5.18;2.38;;;;;;;26.31;44.02;97883.38;4963189;28;20102;-69
2023/08/07 00:56:21;;;;;;;4.20;2.13;;;;;;;26.29;43.85;97886.28;4978528;28;20042;-69
2023/08/07 00:58:47;;;;;;;3.92;2.10;;;;;;;26.25;44.21;97876.31;4979028;28;20030;-69
2023/08/07 01:01:12;;;;;;;2.33;1.95;;;;;;;26.27;44.06;97890.28;4978796;28;20042;-69
2023/08/07 01:03:38;;;;;;;3.70;2.10;;;;;;;26.26;44.00;97896.66;4978794;28;20110;-69
2023/08/07 01:06:04;;;;;;;2.45;2.00;;;;;;;26.23;44.18;97902.50;4962383;28;20022;-70
2023/08/07 01:08:30;;;;;;;5.13;2.20;;;;;;;26.17;44.09;97910.44;4978802;28;20042;-69
2023/08/07 01:11:20;;;;;;;3.05;2.20;;;;;;;26.04;44.63;97921.38;4962653;28;20030;-69
2023/08/07 01:14:02;;;;;;;3.28;2.38;;;;;;;25.98;44.46;97930.34;5011235;28;20116;-69
2023/08/07 01:16:44;;;;;;;4.82;2.63;;;;;;;25.90;44.96;97923.50;4994787;28;20034;-69
2023/08/07 01:19:17;;;;;;;6.05;2.20;;;;;;;25.91;44.91;97921.63;4980638;28;20026;-69
2023/08/07 01:21:45;;;;;;;3.10;2.20;;;;;;;25.90;44.82;97926.19;4963147;28;20022;-69
2023/08/07 01:24:11;;;;;;;7.07;2.28;;;;;;;25.88;44.84;97917.56;4978680;28;20038;-69
2023/08/07 01:26:36;;;;;;;2.58;2.10;;;;;;;25.90;44.63;97936.03;4961896;28;20053;-70
2023/08/07 01:29:06;;;;;;;2.83;2.30;;;;;;;25.83;44.89;97928.97;4978758;28;20030;-69
2023/08/07 01:31:33;;;;;;;3.30;2.20;;;;;;;25.80;44.98;97934.78;4962178;28;20057;-69
2023/08/07 01:34:04;;;;;;;2.75;2.00;;;;;;;25.74;45.06;97945.59;4962038;28;20041;-69
2023/08/07 01:36:29;;;;;;;3.20;2.08;;;;;;;25.66;44.98;97952.13;4978556;28;20027;-69
2023/08/07 01:38:57;;;;;;;3.58;2.20;;;;;;;25.60;45.11;97953.88;4978240;28;20559;-69
2023/08/07 01:41:22;;;;;;;6.57;2.40;;;;;;;25.56;45.22;97952.72;4993610;28;20046;-70
2023/08/07 01:43:48;;;;;;;2.20;1.80;;;;;;;25.56;45.55;97947.38;4961706;28;20030;-69
2023/08/07 01:46:13;;;;;;;4.60;2.33;;;;;;;25.56;45.65;97954.56;4958661;28;20128;-70
2023/08/07 01:48:39;;;;;;;5.78;2.30;;;;;;;25.45;45.62;97946.31;4962383;28;20030;-69
2023/08/07 01:51:04;;;;;;;2.78;2.00;;;;;;;25.46;45.35;97947.94;4961891;28;20058;-69
2023/08/07 01:53:30;;;;;;;5.15;2.58;;;;;;;25.37;45.70;97946.66;4961909;28;20481;-70
2023/08/07 01:55:55;;;;;;;3.60;2.17;;;;;;;25.36;45.51;97937.03;4993722;28;20096;-69
2023/08/07 01:58:22;;;;;;;2.90;1.98;;;;;;;25.36;45.61;97939.69;4977934;28;20030;-69
2023/08/07 02:00:47;;;;;;;4.10;2.17;;;;;;;25.28;45.34;97942.72;4994292;28;20473;-69
2023/08/07 02:03:13;;;;;;;3.13;2.00;;;;;;;25.26;45.82;97939.44;4961679;28;20034;-69
2023/08/07 02:05:38;;;;;;;2.90;1.90;;;;;;;25.18;45.55;97950.47;4977774;28;20025;-69
2023/08/07 02:08:04;;;;;;;6.05;2.10;;;;;;;25.16;45.54;97949.88;4961621;28;20030;-69
2023/08/07 02:10:29;;;;;;;3.33;2.08;;;;;;;25.13;45.29;97958.34;4961462;28;20030;-69
2023/08/07 02:12:57;;;;;;;3.25;2.10;;;;;;;25.12;45.81;97962.06;4961417;28;20069;-69
2023/08/07 02:15:22;;;;;;;3.10;1.80;;;;;;;25.05;45.68;97979.00;4977605;28;20080;-69
2023/08/07 02:17:48;;;;;;;7.22;2.10;;;;;;;24.96;45.87;97977.72;4961225;28;20042;-69
2023/08/07 02:20:13;;;;;;;3.13;1.80;;;;;;;24.93;46.09;97986.97;4961406;28;20030;-69
2023/08/07 02:22:40;;;;;;;4.85;2.03;;;;;;;24.86;46.11;97996.94;4990524;28;20113;-69
2023/08/07 02:25:06;;;;;;;4.53;2.03;;;;;;;24.83;46.08;97997.41;4980630;28;20400;-69
2023/08/07 02:27:32;;;;;;;6.30;2.10;;;;;;;24.72;46.25;97993.66;4966381;28;20037;-69
2023/08/07 02:29:57;;;;;;;6.57;2.05;;;;;;;24.65;46.25;97984.91;4961180;28;20034;-69
2023/08/07 02:32:23;;;;;;;5.75;2.00;;;;;;;24.73;46.36;98005.97;4961236;28;20038;-69
2023/08/07 02:34:48;;;;;;;11.82;2.08;;;;;;;24.81;46.24;98004.00;4960817;28;20046;-69
2023/08/07 02:37:14;;;;;;;3.45;1.92;;;;;;;24.85;46.31;97995.31;4961132;28;20041;-69
2023/08/07 02:39:40;;;;;;;3.92;1.98;;;;;;;24.93;46.12;98005.66;4977243;28;20062;-69
2023/08/07 02:42:05;;;;;;;3.75;1.90;;;;;;;24.92;46.13;97995.22;4960980;28;20100;-69
2023/08/07 02:44:31;;;;;;;3.45;1.90;;;;;;;24.85;45.86;97995.31;4960369;28;20033;-71
2023/08/07 02:46:56;;;;;;;4.47;1.90;;;;;;;24.98;46.93;98004.19;4960394;28;20042;-71
2023/08/07 02:49:22;;;;;;;7.57;2.25;;;;;;;25.17;46.81;98000.38;4993392;28;20035;-70
2023/08/07 02:51:47;;;;;;;7.75;1.95;;;;;;;25.41;46.15;98003.13;4992069;28;20042;-70
2023/08/07 02:54:13;;;;;;;2.83;1.80;;;;;;;25.55;45.86;98009.84;4992449;28;20046;-71
2023/08/07 02:56:38;;;;;;;3.85;1.85;;;;;;;25.61;45.13;98000.91;4992545;28;20042;-72
2023/08/07 02:59:05;;;;;;;6.75;2.00;;;;;;;25.76;44.99;98015.66;4977117;28;20101;-73
2023/08/07 03:01:30;;;;;;;5.00;1.95;;;;;;;25.89;44.91;98018.13;4960486;28;20049;-73
2023/08/07 03:03:56;;;;;;;3.72;1.85;;;;;;;25.99;44.58;98023.69;4961084;28;20042;-72
2023/08/07 03:06:21;;;;;;;4.40;1.80;;;;;;;26.07;44.53;98027.09;4976587;28;20058;-69
2023/08/07 03:08:47;;;;;;;5.85;1.80;;;;;;;26.12;44.13;98027.19;4976701;28;20037;-74
2023/08/07 03:11:12;;;;;;;5.72;1.65;;;;;;;26.20;43.80;98034.84;4976600;28;20072;-84
2023/08/07 03:13:38;;;;;;;3.63;1.90;;;;;;;26.22;43.71;98035.44;4993131;28;20045;-72
2023/08/07 03:16:04;;;;;;;4.00;1.60;;;;;;;26.29;43.69;98041.44;4976397;28;20473;-70
2023/08/07 03:18:30;;;;;;;6.18;2.10;;;;;;;26.29;43.51;98046.81;4961196;28;20065;-71
2023/08/07 03:20:56;;;;;;;5.78;1.80;;;;;;;26.33;43.27;98044.50;4992584;28;20446;-71
2023/08/07 03:23:25;;;;;;;2.70;1.75;;;;;;;26.35;43.48;98045.88;4959825;28;20039;-70
2023/08/07 03:25:50;;;;;;;14.60;2.33;;;;;;;26.42;43.50;98059.09;4977162;28;20026;-77
2023/08/07 03:28:16;;;;;;;5.07;1.98;;;;;;;26.48;43.06;98057.34;4976304;28;20085;-72
2023/08/07 03:30:44;;;;;;;6.30;1.75;;;;;;;26.48;43.02;98052.00;4992330;28;20049;-73
2023/08/07 03:33:09;;;;;;;4.35;1.65;;;;;;;26.44;43.10;98050.84;4975425;28;20084;-74
2023/08/07 03:35:35;;;;;;;3.75;1.88;;;;;;;26.48;43.13;98054.69;4974638;28;20058;-75
2023/08/07 03:38:00;;;;;;;4.78;1.65;;;;;;;26.50;43.14;98057.91;4974825;28;20089;-74
2023/08/07 03:40:26;;;;;;;3.45;1.80;;;;;;;26.60;43.32;98059.97;4992049;28;20474;-73
2023/08/07 03:42:51;;;;;;;2.80;1.83;;;;;;;27.33;41.60;98045.03;4993591;28;20030;-73
2023/08/07 03:45:17;;;;;;;3.50;1.67;;;;;;;28.24;39.51;98054.72;4975919;28;20034;-74
2023/08/07 03:47:42;;;;;;;14.07;1.95;;;;;;;29.03;37.66;98056.19;4992154;28;20034;-74
2023/08/07 03:50:08;;;;;;;7.30;1.70;;;;;;;29.88;36.24;98060.94;4959697;28;20046;-74
2023/08/07 03:52:33;;;;;;;3.33;1.48;;;;;;;30.65;34.45;98058.66;4975786;28;20445;-74
2023/08/07 03:54:59;;;;;;;3.60;1.38;;;;;;;31.42;32.98;98065.28;4992858;28;20030;-74
2023/08/07 03:57:25;;;;;;;2.42;1.38;;;;;;;32.03;31.95;98062.53;4975542;28;20042;-72
2023/08/07 03:59:50;;;;;;;2.75;1.27;;;;;;;32.64;30.59;98058.06;4975586;28;20042;-73
2023/08/07 04:02:16;;;;;;;3.20;1.10;;;;;;;33.18;29.67;98059.91;4975684;28;20034;-73
2023/08/07 04:04:41;;;;;;;8.20;1.50;;;;;;;33.78;28.83;98068.91;4975405;28;20394;-73
2023/08/07 04:07:07;;;;;;;3.67;0.95;;;;;;;34.34;28.36;98071.03;4991005;28;20473;-74
2023/08/07 04:09:33;;;;;;;2.78;1.17;;;;;;;34.89;27.11;98070.63;4991568;28;20550;-73
2023/08/07 04:11:58;;;;;;;6.90;1.17;;;;;;;35.43;26.42;98079.31;4974579;28;20038;-74
2023/08/07 04:14:24;;;;;;;5.47;1.23;;;;;;;35.94;25.55;98072.22;4974057;28;20101;-74
2023/08/07 04:16:49;;;;;;;3.53;1.30;;;;;;;36.44;24.78;98077.00;4990995;28;20041;-73
2023/08/07 04:19:15;;;;;;;2.42;1.10;;;;;;;36.85;24.08;98088.97;4991481;28;20088;-73
2023/08/07 04:21:40;;;;;;;3.45;1.10;;;;;;;37.31;23.52;98085.19;4975301;28;20034;-74
2023/08/07 04:24:10;;;;;;;3.83;1.20;;;;;;;37.79;23.09;98090.00;4975310;28;20038;-73
2023/08/07 04:26:36;;;;;;;4.45;1.27;;;;;;;38.20;22.43;98088.13;5007635;28;20412;-73
2023/08/07 04:29:02;;;;;;;5.43;1.20;;;;;;;38.68;22.05;98091.97;4975389;28;20466;-74
2023/08/07 04:31:27;;;;;;;5.90;1.30;;;;;;;39.08;21.29;98100.88;4991467;28;20026;-74
2023/08/07 04:33:53;;;;;;;9.07;1.10;;;;;;;39.58;20.73;98094.13;4991255;28;20585;-74
2023/08/07 04:36:19;;;;;;;4.75;1.00;;;;;;;39.95;20.51;98104.63;4991317;28;20397;-74
2023/08/07 04:38:44;;;;;;;2.30;1.10;;;;;;;40.37;19.87;98098.50;4992570;28;20097;-73
2023/08/07 04:41:10;;;;;;;4.10;1.10;;;;;;;40.64;19.54;98109.00;4991657;28;20042;-73
2023/08/07 04:43:35;;;;;;;4.00;1.00;;;;;;;41.14;19.05;98112.06;4991529;28;20492;-71
2023/08/07 04:46:01;;;;;;;5.90;1.08;;;;;;;41.52;19.06;98108.34;4991328;28;20117;-73
2023/08/07 04:48:26;;;;;;;6.32;0.98;;;;;;;42.04;18.78;98123.44;4991544;28;20038;-73
2023/08/07 04:50:52;;;;;;;3.30;1.02;;;;;;;42.54;18.42;98130.59;4992485;28;20026;-73
2023/08/07 04:53:17;;;;;;;5.60;1.60;;;;;;;43.12;18.14;98119.41;4991619;28;20073;-73
2023/08/07 04:55:43;;;;;;;5.90;1.10;;;;;;;43.68;17.77;98126.88;4991518;28;20027;-71
2023/08/07 04:58:08;;;;;;;3.97;0.93;;;;;;;44.15;17.34;98117.06;4991214;28;20456;-71
2023/08/07 05:00:34;;;;;;;2.50;1.10;;;;;;;44.67;17.19;98115.19;4975086;28;20037;-72
2023/08/07 05:03:01;;;;;;;7.37;1.30;;;;;;;45.13;16.65;98120.88;4991398;28;20460;-71
2023/08/07 05:05:27;;;;;;;;;;;;;;;45.56;16.63;98123.69;4975262;28;20421;-71
2023/08/07 05:07:55;;;;;;;5.07;1.20;;;;;;;46.05;15.48;98127.75;5009195;28;19913;-70
2023/08/07 05:10:20;;;;;;;3.53;0.77;;;;;;;45.89;15.65;98124.31;4974841;28;20100;-70
2023/08/07 05:12:46;;;;;;;5.03;1.00;;;;;;;46.49;15.57;98120.97;4974727;28;20489;-70
2023/08/07 05:15:11;;;;;;;5.10;1.20;;;;;;;46.82;15.07;98127.75;4975052;28;20027;-71
2023/08/07 05:17:36;;;;;;;7.30;0.90;;;;;;;47.24;15.25;98116.47;4974602;28;20041;-72
2023/08/07 05:20:02;;;;;;;4.03;0.93;;;;;;;47.65;15.09;98130.34;4993690;28;20085;-71
2023/08/07 05:22:29;;;;;;;4.80;1.02;;;;;;;48.03;15.09;98122.00;4994672;28;20033;-72
2023/08/07 05:24:54;;;;;;;5.63;1.08;;;;;;;48.34;14.56;98131.75;4994714;28;20030;-71
2023/08/07 05:27:20;;;;;;;3.87;0.90;;;;;;;48.57;14.68;98127.19;4978171;28;20050;-71
2023/08/07 05:29:45;;;;;;;4.00;0.80;;;;;;;48.80;14.26;98126.97;4995712;28;20112;-69
2023/08/07 05:32:11;;;;;;;3.27;0.70;;;;;;;48.95;14.65;98136.13;4977941;28;20457;-74
2023/08/07 05:34:37;;;;;;;4.93;1.00;;;;;;;49.08;14.45;98134.59;4988611;28;20136;-73
2023/08/07 05:37:03;;;;;;;1.30;0.70;;;;;;;49.16;14.22;98122.38;4997657;28;20041;-73
2023/08/07 05:39:28;;;;;;;3.63;0.90;;;;;;;49.30;13.94;98129.94;4997356;28;20512;-71
2023/08/07 05:41:57;;;;;;;5.27;1.27;;;;;;;49.16;12.50;98127.16;5015119;28;20037;-78
2023/08/07 05:44:22;;;;;;;6.13;1.27;;;;;;;49.04;12.37;98139.31;5015211;28;20331;-74
2023/08/07 05:46:48;;;;;;;2.97;0.90;;;;;;;49.21;12.86;98140.59;4997457;28;20037;-74
2023/08/07 05:49:13;;;;;;;4.17;0.80;;;;;;;49.31;13.38;98141.81;5015633;28;20500;-76
2023/08/07 05:51:39;;;;;;;2.93;1.00;;;;;;;49.38;12.96;98142.63;5014057;28;20034;-76
2023/08/07 05:54:04;;;;;;;7.13;1.00;;;;;;;49.42;13.47;98148.19;4980455;28;20038;-74
2023/08/07 05:56:30;;;;;;;2.63;0.97;;;;;;;49.47;13.38;98145.06;5014711;28;20034;-73
2023/08/07 05:58:55;;;;;;;2.43;0.97;;;;;;;49.49;13.75;98156.53;4996755;28;20045;-73
2023/08/07 06:01:22;;;;;;;4.93;0.97;;;;;;;49.50;13.62;98147.06;4980424;28;20289;-73
2023/08/07 06:03:47;;;;;;;;;;;;;;;49.37;13.51;98154.91;5015535;28;20053;-73
2023/08/07 06:06:12;;;;;;;4.63;0.90;;;;;;;49.35;13.38;98150.94;5014550;28;19913;-73
2023/08/07 06:08:38;;;;;;;5.07;0.70;;;;;;;49.25;12.59;98152.50;4997340;28;20069;-75
2023/08/07 06:11:05;;;;;;;9.97;0.97;;;;;;;48.94;12.23;98157.50;4996596;28;20276;-77
2023/08/07 06:13:30;;;;;;;5.78;1.10;;;;;;;48.79;12.22;98159.41;4997077;28;20273;-71
2023/08/07 06:15:56;;;;;;;5.85;0.95;;;;;;;49.02;12.51;98163.84;5014364;28;20030;-71
2023/08/07 06:18:21;;;;;;;5.40;1.10;;;;;;;49.12;12.63;98162.31;5014282;28;20493;-76
2023/08/07 06:20:47;;;;;;;4.50;1.07;;;;;;;49.15;12.91;98164.34;5014652;28;20065;-74
2023/08/07 06:23:12;;;;;;;3.93;0.87;;;;;;;49.13;13.56;98156.38;4980836;28;20268;-67
2023/08/07 06:25:38;;;;;;;5.35;1.05;;;;;;;49.06;13.01;98162.69;5012764;28;20511;-74
2023/08/07 06:28:03;;;;;;;7.60;0.93;;;;;;;48.79;12.82;98161.34;5013140;28;20038;-80
2023/08/07 06:30:31;;;;;;;4.70;0.90;;;;;;;48.76;13.01;98162.09;4996942;28;20272;-84
2023/08/07 06:32:56;;;;;;;6.05;1.00;;;;;;;48.85;12.97;98163.41;4979992;28;20034;-84
2023/08/07 06:35:22;;;;;;;5.03;0.85;;;;;;;48.87;13.59;98168.53;4995626;28;20134;-76
2023/08/07 06:37:48;;;;;;;4.65;0.82;;;;;;;48.83;13.50;98176.81;5012754;28;20026;-77
2023/08/07 06:40:13;;;;;;;3.93;0.70;;;;;;;48.77;13.91;98169.25;4996485;28;20038;-77
2023/08/07 06:42:39;;;;;;;3.63;0.73;;;;;;;48.73;14.26;98169.22;5012414;28;20069;-79
2023/08/07 06:45:06;;;;;;;3.80;0.90;;;;;;;48.70;14.10;98184.63;4979405;28;20288;-78
2023/08/07 06:47:31;;;;;;;3.90;0.88;;;;;;;48.67;14.71;98188.16;4995162;28;20029;-79
2023/08/07 06:49:57;;;;;;;4.30;0.60;;;;;;;48.61;14.89;98180.63;5012527;28;20041;-80
2023/08/07 06:52:22;;;;;;;4.23;0.77;;;;;;;48.57;14.43;98180.59;5014145;28;20280;-79
2023/08/07 06:54:48;;;;;;;5.50;0.80;;;;;;;48.47;14.59;98181.31;5013932;28;20045;-77
2023/08/07 06:57:14;;;;;;;2.00;0.50;;;;;;;48.45;15.01;98180.91;4996485;28;20077;-79
2023/08/07 06:59:39;;;;;;;3.20;0.63;;;;;;;48.41;15.65;98174.53;5013808;28;20125;-78
2023/08/07 07:02:05;;;;;;;2.30;0.80;;;;;;;48.36;15.51;98183.97;4996364;28;20034;-80
2023/08/07 07:04:31;;;;;;;2.67;0.63;;;;;;;48.34;15.66;98184.34;5013044;28;20041;-77
2023/08/07 07:06:56;;;;;;;3.83;0.73;;;;;;;48.32;15.57;98185.94;4979510;28;20483;-78
2023/08/07 07:09:22;;;;;;;4.20;0.70;;;;;;;48.27;16.09;98195.38;5012723;28;20034;-79
2023/08/07 07:11:48;;;;;;;2.67;0.60;;;;;;;48.24;16.38;98187.84;4996214;28;20467;-79
2023/08/07 07:14:13;;;;;;;4.87;0.57;;;;;;;48.16;16.41;98191.72;4996005;28;20292;-79
2023/08/07 07:16:39;;;;;;;6.40;0.50;;;;;;;48.08;16.52;98184.53;5013492;28;20472;-78
2023/08/07 07:19:08;;;;;;;1.47;0.60;;;;;;;48.02;16.82;98195.13;4979951;28;20053;-78
2023/08/07 07:21:33;;;;;;;1.33;0.47;;;;;;;47.98;16.93;98191.53;4996261;28;20038;-77
2023/08/07 07:23:59;;;;;;;1.70;0.50;;;;;;;47.92;16.94;98193.84;4979615;28;20028;-78
2023/08/07 07:26:24;;;;;;;2.07;0.60;;;;;;;47.86;16.92;98177.97;5012117;28;20018;-78
2023/08/07 07:28:51;;;;;;;1.33;0.57;;;;;;;47.81;17.05;98182.69;4995621;28;20057;-77
2023/08/07 07:31:16;;;;;;;;;;;;;;;47.68;17.38;98191.63;4996442;28;20038;-78
2023/08/07 07:33:42;;;;;;;;;;;;;;;47.60;17.52;98188.75;5012163;28;19987;-78
2023/08/07 07:36:07;;;;;;;1.80;0.50;;;;;;;47.65;17.50;98191.19;5012156;28;19921;-78
2023/08/07 07:38:33;;;;;;;1.80;0.60;;;;;;;47.64;17.66;98197.88;5012154;28;20062;-77
2023/08/07 07:40:58;;;;;;;1.87;0.43;;;;;;;47.64;17.51;98192.34;5010836;28;20481;-78
2023/08/07 07:43:23;;;;;;;1.00;0.40;;;;;;;47.62;18.08;98194.69;5012198;28;20026;-79
2023/08/07 07:45:49;;;;;;;1.93;0.60;;;;;;;47.59;17.93;98189.13;4995553;28;20464;-78
2023/08/07 07:48:15;;;;;;;0.73;0.30;;;;;;;47.60;17.83;98187.94;4978952;28;20037;-77
2023/08/07 07:50:41;;;;;;;1.17;0.57;;;;;;;47.58;18.08;98191.09;4995602;28;20273;-79
2023/08/07 07:53:06;;;;;;;2.78;0.60;;;;;;;47.55;17.99;98189.09;5011520;28;20112;-78
2023/08/07 07:55:34;;;;;;;1.50;0.40;;;;;;;47.51;17.95;98190.22;4995680;28;20030;-78
2023/08/07 07:57:59;;;;;;;1.73;0.40;;;;;;;47.47;18.24;98195.72;4995790;28;20497;-77
2023/08/07 08:00:27;;;;;;;1.13;0.40;;;;;;;47.41;17.58;98192.47;4979169;28;20064;-77
2023/08/07 08:02:53;;;;;;;2.00;0.25;;;;;;;47.35;17.95;98187.66;5011576;28;20041;-78
2023/08/07 08:05:19;;;;;;;1.25;0.50;;;;;;;47.15;17.99;98182.28;5011746;28;20115;-77
2023/08/07 08:07:45;;;;;;;1.15;0.40;;;;;;;47.03;17.63;98180.53;4978894;28;20064;-78
2023/08/07 08:10:10;;;;;;;0.87;0.40;;;;;;;46.89;17.82;98189.41;4978563;28;20040;-79
2023/08/07 08:12:36;;;;;;;0.70;0.30;;;;;;;46.73;17.86;98181.28;5011384;28;20084;-77
2023/08/07 08:15:02;;;;;;;0.50;0.30;;;;;;;46.61;18.30;98183.44;4995018;28;20393;-77
2023/08/07 08:17:28;;;;;;;0.57;0.30;;;;;;;46.46;17.90;98183.19;5011306;28;20509;-77
2023/08/07 08:19:54;;;;;;;1.27;0.40;;;;;;;46.33;17.81;98185.38;4978947;28;20034;-78
2023/08/07 08:22:19;;;;;;;0.97;0.30;;;;;;;46.19;17.61;98180.41;5011697;28;20029;-80
2023/08/07 08:24:45;;;;;;;2.60;0.30;;;;;;;46.00;17.77;98172.19;4978837;28;20030;-77
2023/08/07 08:27:10;;;;;;;1.30;0.37;;;;;;;45.83;17.64;98173.44;5011455;28;20026;-77
2023/08/07 08:29:36;;;;;;;0.60;0.30;;;;;;;45.69;17.61;98174.75;5011633;28;20033;-78
2023/08/07 08:32:01;;;;;;;0.87;0.30;;;;;;;45.57;17.98;98174.91;4995436;28;20033;-78
2023/08/07 08:34:27;;;;;;;1.53;0.40;;;;;;;45.39;17.60;98176.50;4995005;28;20497;-80
2023/08/07 08:36:52;;;;;;;0.70;0.20;;;;;;;45.24;17.94;98175.41;4978995;28;20032;-78
2023/08/07 08:39:18;;;;;;;2.30;0.30;;;;;;;45.13;17.47;98183.44;4978947;28;20061;-80
2023/08/07 08:41:46;;;;;;;0.50;0.40;;;;;;;44.98;17.77;98187.81;5011551;28;20026;-78
2023/08/07 08:44:11;;;;;;;1.15;0.35;;;;;;;44.88;18.11;98185.63;4978902;28;20030;-78
2023/08/07 08:46:37;;;;;;;0.87;0.40;;;;;;;44.75;18.50;98180.22;4994973;28;20026;-81
2023/08/07 08:49:02;;;;;;;2.60;0.43;;;;;;;44.64;18.64;98173.69;4978724;28;20465;-78
2023/08/07 08:51:28;;;;;;;0.40;0.40;;;;;;;44.57;18.11;98179.00;4978598;28;20093;-77
2023/08/07 08:53:56;;;;;;;0.57;0.20;;;;;;;44.48;18.63;98173.69;4997874;28;20061;-78
2023/08/07 08:56:22;;;;;;;0.50;0.30;;;;;;;44.43;18.83;98172.00;4998744;28;20026;-77
2023/08/07 08:58:48;;;;;;;1.35;0.40;;;;;;;44.35;18.78;98175.72;4998948;28;20046;-78
2023/08/07 09:01:14;;;;;;;0.40;0.30;;;;;;;44.31;18.78;98176.78;4982428;28;20389;-81
2023/08/07 09:03:39;;;;;;;0.87;0.30;;;;;;;44.21;18.53;98175.38;4998363;28;20034;-77
2023/08/07 09:06:06;;;;;;;0.33;0.30;;;;;;;44.05;18.65;98176.13;5014912;28;20033;-78
2023/08/07 09:08:32;;;;;;;;;;;;;;;43.81;19.02;98174.34;4983188;28;20030;-78
2023/08/07 09:10:58;;;;;;;2.08;0.30;;;;;;;43.57;19.20;98174.41;5014844;28;19913;-78
2023/08/07 09:13:24;;;;;;;1.00;0.40;;;;;;;43.38;19.34;98173.16;5014526;28;20033;-78
2023/08/07 09:15:50;;;;;;;0.93;0.40;;;;;;;43.20;19.72;98178.06;4998439;28;20394;-77
2023/08/07 09:18:17;;;;;;;1.52;0.40;;;;;;;43.01;20.00;98173.19;4998009;28;20141;-79
2023/08/07 09:20:42;;;;;;;1.13;0.40;;;;;;;42.90;19.70;98174.81;5014558;28;20032;-80
2023/08/07 09:23:08;;;;;;;1.10;0.43;;;;;;;42.75;19.94;98174.38;4981904;28;20045;-78
2023/08/07 09:25:34;;;;;;;0.87;0.40;;;;;;;42.63;20.10;98168.88;5014641;28;20497;-79
2023/08/07 09:28:05;;;;;;;0.65;0.35;;;;;;;42.40;20.32;98165.75;5013395;28;20416;-78
2023/08/07 09:30:31;;;;;;;0.77;0.40;;;;;;;42.20;20.32;98176.50;4982082;28;20036;-78
2023/08/07 09:32:58;;;;;;;2.88;0.50;;;;;;;42.19;20.27;98166.66;4997996;28;20030;-78
2023/08/07 09:35:23;;;;;;;1.45;0.30;;;;;;;42.01;20.38;98165.25;4998003;28;20057;-78
2023/08/07 09:37:49;;;;;;;1.13;0.50;;;;;;;41.86;20.37;98159.28;4998395;28;20061;-78
2023/08/07 09:40:16;;;;;;;0.90;0.50;;;;;;;41.78;20.60;98171.09;5014471;28;20113;-78
2023/08/07 09:42:41;;;;;;;2.35;0.40;;;;;;;41.72;20.91;98169.72;5014760;28;20510;-78
2023/08/07 09:45:23;;;;;;;0.90;0.30;;;;;;;41.62;20.80;98172.88;4997950;28;20422;-78
2023/08/07 09:48:02;;;;;;;2.30;0.40;;;;;;;41.50;21.17;98162.69;4997828;28;20091;-78
2023/08/07 09:50:28;;;;;;;0.63;0.40;;;;;;;41.44;21.32;98169.50;4981575;28;20466;-77
2023/08/07 09:52:55;;;;;;;1.77;0.40;;;;;;;41.27;21.52;98168.44;5013365;28;20041;-77
2023/08/07 09:55:21;;;;;;;0.60;0.40;;;;;;;41.18;21.65;98171.28;5014285;28;20507;-78
2023/08/07 09:57:46;;;;;;;0.85;0.40;;;;;;;41.07;21.46;98163.78;4981681;28;20117;-80
2023/08/07 10:00:14;;;;;;;1.02;0.38;;;;;;;40.87;21.33;98160.69;5002372;28;20476;-81
2023/08/07 10:02:40;;;;;;;2.58;0.50;;;;;;;40.74;21.97;98164.44;4983997;28;20566;-80
2023/08/07 10:05:06;;;;;;;0.63;0.32;;;;;;;40.69;21.72;98152.56;4996464;28;20054;-81
2023/08/07 10:07:34;;;;;;;0.60;0.40;;;;;;;40.46;22.18;98153.97;4981948;28;20029;-78
2023/08/07 10:09:59;;;;;;;0.57;0.35;;;;;;;40.20;22.69;98154.88;4981030;28;20381;-78
2023/08/07 10:12:26;;;;;;;2.33;0.50;;;;;;;40.11;22.37;98156.84;4996996;28;20029;-76
2023/08/07 10:14:51;;;;;;;1.52;0.60;;;;;;;39.91;21.87;98159.09;5013846;28;20034;-78
2023/08/07 10:17:17;;;;;;;3.67;0.40;;;;;;;39.78;21.89;98162.81;4998085;28;20404;-79
2023/08/07 10:19:43;;;;;;;1.48;0.60;;;;;;;39.57;22.22;98155.31;4980922;28;20050;-78
2023/08/07 10:22:09;;;;;;;0.77;0.50;;;;;;;39.39;21.75;98159.13;5014325;28;20390;-77
2023/08/07 10:24:36;;;;;;;0.50;0.40;;;;;;;39.22;21.81;98151.75;4981032;28;20057;-78
2023/08/07 10:27:01;;;;;;;;;;;;;;;39.05;21.89;98160.72;4981356;28;20068;-77
2023/08/07 10:29:27;;;;;;;1.10;0.40;;;;;;;38.93;22.07;98155.88;4997049;28;19968;-77
2023/08/07 10:31:56;;;;;;;4.97;0.60;;;;;;;38.77;22.67;98149.28;4980903;28;20021;-77
2023/08/07 10:34:22;;;;;;;1.45;0.60;;;;;;;38.60;22.60;98136.34;4980224;28;20145;-78
2023/08/07 10:36:47;;;;;;;1.08;0.60;;;;;;;38.51;22.44;98144.53;4996686;28;20061;-78
2023/08/07 10:39:13;;;;;;;1.05;0.50;;;;;;;38.36;22.21;98146.53;4980621;28;20057;-78
2023/08/07 10:41:42;;;;;;;0.85;0.40;;;;;;;38.17;22.42;98138.59;4996819;28;20033;-78
2023/08/07 10:44:19;;;;;;;3.17;0.60;;;;;;;37.89;22.39;98132.53;4980489;28;20421;-79
2023/08/07 10:46:57;;;;;;;1.75;0.40;;;;;;;37.74;22.54;98139.16;4979950;28;20416;-78
2023/08/07 10:49:38;;;;;;;1.23;0.60;;;;;;;37.52;22.05;98133.69;4981146;28;20034;-80
2023/08/07 10:52:05;;;;;;;1.58;0.40;;;;;;;37.35;22.44;98124.28;5013248;28;20038;-79
2023/08/07 10:54:30;;;;;;;1.20;0.52;;;;;;;37.16;22.35;98124.41;5012802;28;20040;-78
2023/08/07 10:56:56;;;;;;;0.90;0.52;;;;;;;37.02;22.00;98131.81;4996523;28;20029;-77
2023/08/07 10:59:21;;;;;;;0.90;0.60;;;;;;;36.86;22.12;98117.75;4996376;28;20021;-78
2023/08/07 11:01:54;;;;;;;1.17;0.60;;;;;;;36.78;21.84;98121.19;4996070;28;20044;-78
2023/08/07 11:04:24;;;;;;;1.65;0.50;;;;;;;36.70;22.37;98128.13;4996675;28;20029;-78
2023/08/07 11:06:49;;;;;;;2.28;0.70;;;;;;;36.60;22.48;98112.03;4996515;28;20022;-77
2023/08/07 11:09:15;;;;;;;1.05;0.50;;;;;;;36.50;22.65;98108.41;4996124;28;20030;-77
2023/08/07 11:11:46;;;;;;;1.20;0.65;;;;;;;36.44;23.01;98106.09;4996251;28;20034;-76
2023/08/07 11:14:17;;;;;;;0.95;0.40;;;;;;;36.42;23.29;98106.41;4996175;28;20026;-79
2023/08/07 11:16:43;;;;;;;2.25;0.40;;;;;;;36.37;23.33;98106.47;4996810;28;20022;-79
2023/08/07 11:19:09;;;;;;;1.70;0.60;;;;;;;36.30;23.58;98104.19;4995941;28;20030;-80
2023/08/07 11:21:34;;;;;;;0.60;0.50;;;;;;;36.28;23.56;98100.13;4995519;28;20099;-77
2023/08/07 11:24:00;;;;;;;1.90;0.63;;;;;;;36.23;23.60;98101.03;5012114;28;20040;-77
2023/08/07 11:26:27;;;;;;;0.85;0.60;;;;;;;36.16;23.77;98097.91;4979700;28;20107;-78
2023/08/07 11:28:54;;;;;;;2.42;0.70;;;;;;;36.06;23.54;98096.19;4996093;28;20029;-76